Pond: Past 24 Hour Conditions

 

Nain Airport

11:00 AM ADT 20 April 2014
This table is a summary of hourly weather conditions for the past 24 hours.
Date / Time
(ADT)
Wind(knots) Conditions Visibility(km) Pressure(kPa) Air tempC) Relative humidity(%) Dew pointC) Wind Chill
20 April 2014
11:00 WNW 12 Mainly Sunny 24 102.1 -8 62 -14 -15
10:00 NW 13 Mainly Sunny 24 102.1 -7 65 -12 -15
9:00 WNW 14 Mainly Sunny 24 102.1 -7 69 -12 -15
8:00 WNW 17 Mainly Sunny 24 102.0 -9 69 -13 -18
7:00 WNW 19 Mainly Sunny 24 102.0 -9 67 -14 -19
6:00 WNW 16 Mainly Sunny 24 101.9 -9 71 -13 -18
5:00 WNW 15 Mainly Clear 24 101.9 -9 76 -13 -18
4:00 15 gust 22 N/A N/A 101.8 -8 59 -14 -16
3:00 22 gust 30 N/A N/A 101.7 -7 54 -14 -16
2:00 18 gust 24 N/A N/A 101.8 -7 51 -15 -16
1:00 21 gust 29 N/A N/A 101.8 -7 49 -15 -16
0:00 24 gust 33 N/A N/A 101.9 -6 46 -16 -16
19 April 2014
23:00 16 gust 21 N/A N/A 102.0 -6 49 -15 -14
22:00 14 gust 19 N/A N/A 102.0 -7 52 -15 -15
21:00 14 gust 25 N/A N/A 102.1 -7 48 -16 -15
20:00 W 15 gust 25 Mainly Sunny 24 102.2 -10 60 -16 -19
19:00 WNW 22 gust 27 Sunny 24 102.1 -9 59 -15 -19
18:00 WNW 17 gust 22 Mainly Sunny 24 102.1 -8 61 -14 -17
17:00 WNW 18 gust 24 Mainly Sunny 24 102.1 -6 65 -12 -15
16:00 WNW 15 Sunny 24 102.1 -4 71 -8 -11
15:00 WNW 15 Mainly Sunny 24 102.1 -6 70 -11 -14
14:00 NW 21 Sunny 24 102.1 -5 67 -11 -14
13:00 WNW 14 Sunny 24 102.1 -5 50 -14 -13
12:00 W 12 gust 18 Sunny 24 102.2 -6 50 -15 -13
11:00 W 10 Sunny 24 102.2 -8 45 -17 -14
 
Map of Arctic - Eastern Arctic marine weather areas Baker Lake Airport Chesterfield Inlet Airport Coral Harbour Airport Gjoa Haven Airport Kugaaruk Airport Rankin Inlet Airport Shepherd Bay Airport Whale Cove Airport Arctic Bay Brevoort Island Qikiqtarjuaq Airport Cape Dorset Airport Cape Dyer Cape Hooper Clyde Airport Grise Fiord Airport Hall Beach Airport Igloolik Airport Iqaluit Airport Longstaff Bluff Pangnirtung Airport Pond Inlet Airport Repulse Bay Airport Resolute Airport Resolution Island Rowley Island Airport Taloyoak Airport Wager Bay Akulivik Airport Ivujivik Airport Puvirnituq Airport Kangiqsujuaq Airport Kangirsuk Airport Quaqtaq Airport Tasiujaq Airport Cape Kakkiviak Cape Kiglapait Nain Airport Saglek Cape Mercy Kimmirut Airport Aupaluk Airport Salluit Airport Kangiqsualujjuaq Airport Fort Ross
Legend: buoyBuoy land stationLand Station